Time;durP1;ratioP1;P1;durP2;ratioP2;P2;SDS_P1;SDS_P2;PMS_P1;PMS_P2;Temp;Humidity;BMP_temperature;BMP_pressure;BME280_temperature;BME280_humidity;BME280_pressure;Samples;Min_cycle;Max_cycle;Signal;HPM_P1;HPM_P2
2022/06/22 00:00:29;;;;;;;3.93;1.47;;;17.50;99.90;;;;;;4909443;28;10000654;-75
2022/06/22 00:02:55;;;;;;;3.05;1.25;;;17.50;99.90;;;;;;5005136;28;20588;-75
2022/06/22 00:05:33;;;;;;;3.08;1.48;;;17.50;99.90;;;;;;5020019;28;20658;-75
2022/06/22 00:08:02;;;;;;;3.42;1.50;;;17.50;99.90;;;;;;5025996;28;20434;-75
2022/06/22 00:10:39;;;;;;;3.72;1.30;;;17.50;99.90;;;;;;5024952;28;20033;-75
2022/06/22 00:13:16;;;;;;;2.47;1.42;;;17.50;99.90;;;;;;5019849;28;20227;-75
2022/06/22 00:15:52;;;;;;;6.05;1.58;;;17.50;99.90;;;;;;5012265;28;20033;-75
2022/06/22 00:18:29;;;;;;;2.72;1.58;;;17.50;99.90;;;;;;5025261;28;20071;-75
2022/06/22 00:20:59;;;;;;;7.22;1.60;;;17.50;99.90;;;;;;5011079;28;20026;-75
2022/06/22 00:23:30;;;;;;;2.72;1.60;;;17.50;99.90;;;;;;5019114;28;20105;-75
2022/06/22 00:26:08;;;;;;;5.30;1.48;;;17.40;99.90;;;;;;5016289;28;20029;-75
2022/06/22 00:28:51;;;;;;;5.35;1.45;;;17.50;99.90;;;;;;5015101;28;20026;-75
2022/06/22 00:31:30;;;;;;;2.80;1.30;;;17.50;99.90;;;;;;5013170;28;20041;-75
2022/06/22 00:34:10;;;;;;;5.10;1.92;;;17.40;99.90;;;;;;5027243;28;20119;-75
2022/06/22 00:36:49;;;;;;;3.65;1.50;;;17.40;99.90;;;;;;5022785;28;20068;-75
2022/06/22 00:39:21;;;;;;;3.63;1.70;;;17.40;99.90;;;;;;5025407;28;20406;-75
2022/06/22 00:42:18;;;;;;;2.97;1.38;;;17.40;99.90;;;;;;5011280;28;20022;-75
2022/06/22 00:44:56;;;;;;;2.53;1.75;;;17.30;99.90;;;;;;5016261;28;20124;-75
2022/06/22 00:47:33;;;;;;;3.53;1.60;;;17.30;99.90;;;;;;5022824;28;20355;-75
2022/06/22 00:50:09;;;;;;;3.85;2.17;;;17.30;99.90;;;;;;5022099;28;20025;-75
2022/06/22 00:52:38;;;;;;;7.80;2.33;;;17.20;99.90;;;;;;5019148;28;20029;-75
2022/06/22 00:55:16;;;;;;;4.43;1.98;;;17.20;99.90;;;;;;5020627;28;20037;-75
2022/06/22 00:57:49;;;;;;;4.68;1.98;;;17.10;99.90;;;;;;5022837;28;20057;-75
2022/06/22 01:00:18;;;;;;;2.55;1.80;;;17.10;99.90;;;;;;5025422;28;20029;-76
2022/06/22 01:03:04;;;;;;;6.57;2.15;;;17.00;99.90;;;;;;5020172;28;20046;-75
2022/06/22 01:05:47;;;;;;;4.90;2.38;;;17.00;99.90;;;;;;5015243;28;20040;-75
2022/06/22 01:08:19;;;;;;;4.38;2.10;;;17.00;99.90;;;;;;5028430;28;20397;-75
2022/06/22 01:10:56;;;;;;;3.80;2.00;;;16.90;99.90;;;;;;5021826;28;20026;-76
2022/06/22 01:13:32;;;;;;;3.28;2.00;;;16.80;99.90;;;;;;5019826;28;20129;-75
2022/06/22 01:16:07;;;;;;;4.25;2.00;;;16.80;99.90;;;;;;5009953;28;20152;-75
2022/06/22 01:18:37;;;;;;;5.20;2.55;;;16.80;99.90;;;;;;5015604;28;20030;-75
2022/06/22 01:21:09;;;;;;;3.97;2.03;;;16.80;99.90;;;;;;5020317;28;20381;-75
2022/06/22 01:23:52;;;;;;;9.75;2.30;;;16.70;99.90;;;;;;5020047;28;20026;-75
2022/06/22 01:26:33;;;;;;;;;;;16.70;99.90;;;;;;5030085;28;20021;-75
2022/06/22 01:29:12;;;;;;;4.07;2.20;;;16.70;99.90;;;;;;5023138;28;19988;-75
2022/06/22 01:31:53;;;;;;;6.60;2.42;;;16.60;99.90;;;;;;5024139;28;20056;-75
2022/06/22 01:34:20;;;;;;;5.40;2.33;;;16.60;99.90;;;;;;5010210;28;20054;-75
2022/06/22 01:36:45;;;;;;;8.10;2.33;;;16.60;99.90;;;;;;5013820;28;20029;-75
2022/06/22 01:39:13;;;;;;;5.90;2.55;;;16.60;99.90;;;;;;5028233;28;20450;-75
2022/06/22 01:41:52;;;;;;;3.78;2.10;;;16.60;99.90;;;;;;5022175;28;20116;-75
2022/06/22 01:44:36;;;;;;;4.22;2.35;;;16.60;99.90;;;;;;5019173;28;20026;-75
2022/06/22 01:47:27;;;;;;;5.20;2.60;;;16.60;99.90;;;;;;5018536;28;20478;-75
2022/06/22 01:50:18;;;;;;;7.85;2.33;;;16.50;99.90;;;;;;5019919;28;20083;-75
2022/06/22 01:53:05;;;;;;;4.53;2.33;;;16.50;99.90;;;;;;5019570;28;20037;-75
2022/06/22 01:55:42;;;;;;;4.25;2.80;;;16.40;99.90;;;;;;5019879;28;20058;-75
2022/06/22 01:58:14;;;;;;;7.45;2.85;;;16.40;99.90;;;;;;5020485;28;20267;-75
2022/06/22 02:00:49;;;;;;;4.57;2.78;;;16.40;99.90;;;;;;5024852;28;20333;-75
2022/06/22 02:03:32;;;;;;;5.38;2.65;;;16.40;99.90;;;;;;5013809;28;20502;-75
2022/06/22 02:09:09;;;;;;;4.18;2.35;;;16.30;99.90;;;;;;5028752;28;20625;-75
2022/06/22 02:11:42;;;;;;;4.45;2.00;;;16.30;99.90;;;;;;5010892;28;20561;-75
2022/06/22 02:14:21;;;;;;;5.15;2.83;;;16.30;99.90;;;;;;5013354;28;20049;-75
2022/06/22 02:16:58;;;;;;;6.78;2.50;;;16.30;99.90;;;;;;5024573;28;20034;-75
2022/06/22 02:19:28;;;;;;;4.50;2.50;;;16.20;99.90;;;;;;5020958;28;20159;-75
2022/06/22 02:21:57;;;;;;;6.65;2.90;;;16.20;99.90;;;;;;5022046;28;20025;-75
2022/06/22 02:24:35;;;;;;;5.03;2.60;;;16.20;99.90;;;;;;5013357;28;20076;-76
2022/06/22 02:27:04;;;;;;;5.32;2.30;;;16.20;99.90;;;;;;5018017;28;20094;-76
2022/06/22 02:29:38;;;;;;;5.40;2.78;;;16.20;99.90;;;;;;5013191;28;20025;-75
2022/06/22 02:32:07;;;;;;;5.50;2.72;;;16.00;99.90;;;;;;5008841;28;20029;-76
2022/06/22 02:34:34;;;;;;;5.80;2.40;;;15.90;99.90;;;;;;5022104;28;20057;-75
2022/06/22 02:37:03;;;;;;;3.05;2.15;;;15.80;99.90;;;;;;5023548;28;20045;-75
2022/06/22 02:39:32;;;;;;;4.35;2.30;;;15.60;99.90;;;;;;5019287;28;20114;-75
2022/06/22 02:44:46;;;;;;;4.45;2.45;;;15.30;99.90;;;;;;5013882;28;20027;-75
2022/06/22 02:47:31;;;;;;;7.55;2.97;;;15.20;99.90;;;;;;5017559;28;20109;-75
2022/06/22 02:50:07;;;;;;;6.03;2.63;;;15.30;99.90;;;;;;5021942;28;20033;-75
2022/06/22 02:52:45;;;;;;;3.58;2.50;;;15.30;99.90;;;;;;5015850;28;20092;-75
2022/06/22 02:55:14;;;;;;;7.45;2.72;;;15.40;99.90;;;;;;5027682;28;20025;-75
2022/06/22 02:57:52;;;;;;;5.70;2.80;;;15.30;99.90;;;;;;5026142;28;20501;-75
2022/06/22 03:00:21;;;;;;;5.35;2.80;;;15.30;99.90;;;;;;5019526;28;20131;-75
2022/06/22 03:02:49;;;;;;;6.90;2.72;;;15.20;99.90;;;;;;5011801;28;20117;-75
2022/06/22 03:05:17;;;;;;;3.88;2.58;;;15.20;99.90;;;;;;5008907;28;20069;-75
2022/06/22 03:07:46;;;;;;;6.28;2.88;;;15.20;99.90;;;;;;5022267;28;20393;-75
2022/06/22 03:10:50;;;;;;;4.32;2.30;;;15.20;99.90;;;;;;5019536;28;20034;-75
2022/06/22 03:13:20;;;;;;;5.82;2.70;;;15.30;99.90;;;;;;5023630;28;20083;-75
2022/06/22 03:15:47;;;;;;;4.97;2.53;;;15.30;99.90;;;;;;5017505;28;20048;-75
2022/06/22 03:18:24;;;;;;;5.22;2.75;;;15.40;99.90;;;;;;5023839;28;20120;-76
2022/06/22 03:21:06;;;;;;;7.75;2.92;;;15.40;99.90;;;;;;5021134;28;20030;-75
2022/06/22 03:23:52;;;;;;;8.38;3.00;;;15.40;99.90;;;;;;5018542;28;20313;-75
2022/06/22 03:26:23;;;;;;;6.00;2.92;;;15.50;99.90;;;;;;5007915;28;20193;-75
2022/06/22 03:29:21;;;;;;;4.38;2.60;;;15.50;99.90;;;;;;5007763;28;20445;-76
2022/06/22 03:31:52;;;;;;;5.22;2.60;;;15.50;99.90;;;;;;5021520;28;20512;-75
2022/06/22 03:34:24;;;;;;;7.55;3.42;;;15.50;99.90;;;;;;5026793;28;20138;-75
2022/06/22 03:37:04;;;;;;;5.80;3.10;;;15.60;99.90;;;;;;5025994;28;20040;-75
2022/06/22 03:39:35;;;;;;;7.15;2.90;;;15.70;99.90;;;;;;5015820;28;20036;-75
2022/06/22 03:42:09;;;;;;;6.22;2.58;;;15.60;99.90;;;;;;5024322;28;20032;-75
2022/06/22 03:44:51;;;;;;;6.55;2.90;;;15.60;99.90;;;;;;5015040;28;20034;-75
2022/06/22 03:47:36;;;;;;;4.55;3.20;;;15.70;99.90;;;;;;5017065;28;20030;-75
2022/06/22 03:50:21;;;;;;;5.18;3.17;;;15.70;99.90;;;;;;5022941;28;20029;-75
2022/06/22 03:52:58;;;;;;;6.45;3.20;;;15.70;99.90;;;;;;5024229;28;20086;-75
2022/06/22 03:55:28;;;;;;;5.97;2.90;;;15.70;99.90;;;;;;5015857;28;20041;-75
2022/06/22 03:57:56;;;;;;;8.80;3.00;;;15.80;99.90;;;;;;5015291;28;20520;-75
2022/06/22 04:00:23;;;;;;;7.38;3.00;;;15.80;99.90;;;;;;5023291;28;20033;-75
2022/06/22 04:02:49;;;;;;;4.57;2.30;;;15.90;99.90;;;;;;5015526;28;20148;-75
2022/06/22 04:05:18;;;;;;;2.90;2.17;;;15.90;99.90;;;;;;5019909;28;20100;-75
2022/06/22 04:07:46;;;;;;;4.30;2.30;;;16.00;99.90;;;;;;5026057;28;20026;-75
2022/06/22 04:10:23;;;;;;;6.18;2.40;;;16.00;99.90;;;;;;5014945;28;20034;-75
2022/06/22 04:12:51;;;;;;;6.20;2.65;;;16.20;99.90;;;;;;5016982;28;20037;-75
2022/06/22 04:15:38;;;;;;;5.05;2.20;;;17.30;99.90;;;;;;5019682;28;20057;-75
2022/06/22 04:18:13;;;;;;;4.60;2.10;;;19.40;99.90;;;;;;5022881;28;20032;-75
2022/06/22 04:20:52;;;;;;;6.78;2.20;;;21.40;99.90;;;;;;5014325;28;20036;-75
2022/06/22 04:23:32;;;;;;;4.80;2.10;;;23.20;97.10;;;;;;5024920;28;20017;-75
2022/06/22 04:26:14;;;;;;;4.03;2.30;;;23.90;93.10;;;;;;5021475;28;20029;-75
2022/06/22 04:28:44;;;;;;;3.13;2.00;;;23.80;91.60;;;;;;5018050;28;20041;-75
2022/06/22 04:31:26;;;;;;;4.93;2.10;;;23.10;92.40;;;;;;5017158;28;20044;-76
2022/06/22 04:34:04;;;;;;;3.72;2.10;;;22.40;92.90;;;;;;5015669;28;20042;-75
2022/06/22 04:36:44;;;;;;;3.67;2.00;;;21.60;94.40;;;;;;5012715;28;20087;-76
2022/06/22 04:39:31;;;;;;;5.20;2.05;;;20.90;96.20;;;;;;5019803;28;20029;-75
2022/06/22 04:42:00;;;;;;;5.93;2.17;;;20.10;98.40;;;;;;5022649;28;20049;-75
2022/06/22 04:44:41;;;;;;;3.78;1.92;;;19.50;99.90;;;;;;5029643;28;20026;-75
2022/06/22 04:47:24;;;;;;;4.47;2.45;;;19.10;99.90;;;;;;5023954;28;20044;-75
2022/06/22 04:50:12;;;;;;;3.65;2.10;;;18.70;99.90;;;;;;5017603;28;20107;-75
2022/06/22 04:52:44;;;;;;;4.95;2.60;;;18.70;99.90;;;;;;5014902;28;20517;-75
2022/06/22 04:55:17;;;;;;;8.30;3.17;;;18.70;99.90;;;;;;5023316;28;20041;-75
2022/06/22 04:57:46;;;;;;;4.97;3.15;;;18.70;99.90;;;;;;5019620;28;20033;-75
2022/06/22 05:00:22;;;;;;;6.00;3.00;;;18.70;99.90;;;;;;5013711;28;20590;-75
2022/06/22 05:02:56;;;;;;;5.15;2.33;;;18.60;99.90;;;;;;5010747;28;20117;-75
2022/06/22 05:05:25;;;;;;;4.70;2.25;;;18.50;99.90;;;;;;5018432;28;20026;-75
2022/06/22 05:07:59;;;;;;;4.32;2.13;;;18.40;99.90;;;;;;5020372;28;20033;-75
2022/06/22 05:10:43;;;;;;;3.78;2.50;;;18.30;99.90;;;;;;5017717;28;20057;-75
2022/06/22 05:13:23;;;;;;;4.70;2.80;;;18.20;99.90;;;;;;5023975;28;20037;-76
2022/06/22 05:15:54;;;;;;;4.97;2.45;;;18.10;99.90;;;;;;5009679;28;20455;-75
2022/06/22 05:18:29;;;;;;;3.85;2.40;;;17.90;99.90;;;;;;5026758;28;20378;-75
2022/06/22 05:21:10;;;;;;;4.95;2.40;;;17.70;99.90;;;;;;5016145;28;20026;-75
2022/06/22 05:23:36;;;;;;;6.43;2.80;;;17.60;99.90;;;;;;5016659;28;20033;-75
2022/06/22 05:26:06;;;;;;;4.53;2.80;;;17.50;99.90;;;;;;5018419;28;20492;-75
2022/06/22 05:28:37;;;;;;;4.85;2.78;;;17.20;99.90;;;;;;5029921;28;20040;-76
2022/06/22 05:31:07;;;;;;;4.35;2.70;;;17.00;99.90;;;;;;5017616;28;20040;-76
2022/06/22 05:33:35;;;;;;;4.20;2.40;;;17.00;99.90;;;;;;5017830;28;20050;-75
2022/06/22 05:36:09;;;;;;;4.50;2.70;;;17.20;99.90;;;;;;5017616;28;20030;-76
2022/06/22 05:38:39;;;;;;;7.00;2.78;;;17.40;99.90;;;;;;5023011;28;20371;-75
2022/06/22 05:41:07;;;;;;;6.60;2.78;;;17.60;99.90;;;;;;5019718;28;20067;-75
2022/06/22 05:43:36;;;;;;;4.65;2.90;;;17.70;99.90;;;;;;5015911;28;20393;-75
2022/06/22 05:46:06;;;;;;;4.72;2.60;;;17.80;99.90;;;;;;5017441;28;20694;-76
2022/06/22 05:48:39;;;;;;;5.72;2.35;;;18.00;99.90;;;;;;5009427;28;20038;-76
2022/06/22 05:51:15;;;;;;;6.18;3.03;;;18.10;99.90;;;;;;5015745;28;20034;-74
2022/06/22 05:54:02;;;;;;;5.65;2.40;;;18.40;99.90;;;;;;5013262;28;20040;-74
2022/06/22 05:56:37;;;;;;;5.82;2.70;;;18.50;99.90;;;;;;5027625;28;20394;-74
2022/06/22 05:59:19;;;;;;;2.60;2.00;;;18.50;99.90;;;;;;5021263;28;20452;-74
2022/06/22 06:01:55;;;;;;;4.13;2.23;;;18.50;99.90;;;;;;5009428;28;20468;-74
2022/06/22 06:04:47;;;;;;;5.90;2.47;;;18.50;99.90;;;;;;5013857;28;20646;-74
2022/06/22 06:07:34;;;;;;;8.45;2.80;;;18.60;99.90;;;;;;5001393;28;20050;-74
2022/06/22 06:10:02;;;;;;;7.22;2.72;;;18.60;99.90;;;;;;5014539;28;20113;-74
2022/06/22 06:12:36;;;;;;;4.80;2.97;;;18.80;99.90;;;;;;5027676;28;20104;-74
2022/06/22 06:15:05;;;;;;;7.00;3.00;;;19.10;99.90;;;;;;5026706;28;20474;-74
2022/06/22 06:17:41;;;;;;;6.10;3.05;;;19.40;99.90;;;;;;5026645;28;20096;-74
2022/06/22 06:20:17;;;;;;;7.97;3.00;;;19.70;99.90;;;;;;5018737;28;20080;-74
2022/06/22 06:22:43;;;;;;;7.40;2.80;;;19.90;99.90;;;;;;5006676;28;20097;-74
2022/06/22 06:28:09;;;;;;;5.47;2.72;;;20.40;99.90;;;;;;5023836;28;20059;-74
2022/06/22 06:30:42;;;;;;;6.60;2.45;;;20.60;99.90;;;;;;5016595;28;20485;-74
2022/06/22 06:33:16;;;;;;;6.72;2.40;;;20.70;99.90;;;;;;5008570;28;20080;-74
2022/06/22 06:35:45;;;;;;;5.38;2.38;;;20.80;99.90;;;;;;4997038;28;20038;-74
2022/06/22 06:38:14;;;;;;;5.75;2.35;;;20.80;99.90;;;;;;4996299;28;20030;-74
2022/06/22 06:41:11;;;;;;;4.03;2.22;;;20.70;99.90;;;;;;5004882;28;20402;-74
2022/06/22 06:43:56;;;;;;;4.85;2.30;;;20.70;99.90;;;;;;5006367;28;20025;-74
2022/06/22 06:46:27;;;;;;;4.70;2.40;;;20.80;99.90;;;;;;4999596;28;20045;-74
2022/06/22 06:49:05;;;;;;;3.75;2.22;;;20.80;99.90;;;;;;4999841;28;20494;-74
2022/06/22 06:51:33;;;;;;;4.88;2.20;;;20.80;99.90;;;;;;4997656;28;20113;-74
2022/06/22 06:54:13;;;;;;;5.50;2.42;;;20.80;99.90;;;;;;4988449;28;20033;-74
2022/06/22 06:56:54;;;;;;;4.95;1.83;;;20.90;99.90;;;;;;4988050;28;20034;-74
2022/06/22 06:59:26;;;;;;;4.53;1.85;;;21.00;99.90;;;;;;5007276;28;20390;-74
2022/06/22 07:01:52;;;;;;;7.75;1.85;;;21.00;99.90;;;;;;5000352;28;20080;-74
2022/06/22 07:04:28;;;;;;;3.60;1.63;;;21.00;99.90;;;;;;5003008;28;20038;-75
2022/06/22 07:07:04;;;;;;;3.58;1.88;;;20.90;99.90;;;;;;4997218;28;20018;-73
2022/06/22 07:09:35;;;;;;;4.85;1.95;;;20.90;99.90;;;;;;5007301;28;20382;-74
2022/06/22 07:12:20;;;;;;;3.55;1.70;;;21.00;99.90;;;;;;5005833;28;20029;-74
2022/06/22 07:14:46;;;;;;;5.13;1.95;;;21.10;99.90;;;;;;4996147;28;20064;-75
2022/06/22 07:17:15;;;;;;;6.93;1.83;;;21.20;99.90;;;;;;4993470;28;20125;-75
2022/06/22 07:19:47;;;;;;;7.40;2.20;;;21.10;99.90;;;;;;4993631;28;20037;-74
2022/06/22 07:22:17;;;;;;;4.55;2.05;;;21.20;99.90;;;;;;4998203;28;20033;-74
2022/06/22 07:24:50;;;;;;;5.68;2.30;;;21.40;99.90;;;;;;4997689;28;20030;-74
2022/06/22 07:27:31;;;;;;;5.30;2.40;;;21.60;99.30;;;;;;4993745;28;20060;-74
2022/06/22 07:30:03;;;;;;;5.45;2.05;;;21.80;99.00;;;;;;4990709;28;20045;-74
2022/06/22 07:32:41;;;;;;;8.90;2.37;;;21.70;98.30;;;;;;5005087;28;20034;-74
2022/06/22 07:35:30;;;;;;;5.15;1.52;;;21.60;99.10;;;;;;5020923;28;20675;-74
2022/06/22 07:38:21;;;;;;;8.48;2.40;;;21.50;98.80;;;;;;5016979;28;20041;-74
2022/06/22 07:43:33;;;;;;;4.90;2.08;;;21.60;99.10;;;;;;5026239;28;20028;-74
2022/06/22 07:45:59;;;;;;;4.20;1.80;;;21.80;97.50;;;;;;5025617;28;20026;-74
2022/06/22 07:48:27;;;;;;;5.05;2.00;;;21.90;97.30;;;;;;5015939;28;20033;-74
2022/06/22 07:50:55;;;;;;;6.15;1.92;;;22.00;96.90;;;;;;5006778;28;20397;-74
2022/06/22 07:53:38;;;;;;;5.75;1.90;;;22.30;97.80;;;;;;5014318;28;20405;-76
2022/06/22 07:56:18;;;;;;;4.13;2.00;;;22.70;95.90;;;;;;5022146;28;20042;-76
2022/06/22 07:58:56;;;;;;;4.45;1.98;;;22.90;95.40;;;;;;5016357;28;20048;-75
2022/06/22 08:01:30;;;;;;;6.93;1.70;;;23.30;95.40;;;;;;5023649;28;20033;-74
2022/06/22 08:04:02;;;;;;;5.57;1.77;;;23.40;94.50;;;;;;5027197;28;20298;-74
2022/06/22 08:06:53;;;;;;;5.60;1.77;;;23.50;92.50;;;;;;5030723;28;20056;-74
2022/06/22 08:09:28;;;;;;;4.30;1.70;;;23.50;91.50;;;;;;5000744;28;20029;-74
2022/06/22 08:12:12;;;;;;;5.72;1.83;;;23.50;92.40;;;;;;5025557;28;20026;-73
2022/06/22 08:14:52;;;;;;;6.00;1.48;;;23.50;91.70;;;;;;5020191;28;20044;-74
2022/06/22 08:17:23;;;;;;;5.55;1.77;;;23.50;91.90;;;;;;5029778;28;20030;-74
2022/06/22 08:19:49;;;;;;;6.05;1.58;;;23.40;91.30;;;;;;5025039;28;20230;-74
2022/06/22 08:22:15;;;;;;;4.30;1.48;;;23.30;91.20;;;;;;5030149;28;20482;-74
2022/06/22 08:24:45;;;;;;;7.03;1.33;;;23.40;91.30;;;;;;5025347;28;20021;-75
2022/06/22 08:27:18;;;;;;;3.60;1.15;;;23.50;91.40;;;;;;5020670;28;20117;-74
2022/06/22 08:29:46;;;;;;;5.80;1.33;;;23.50;91.00;;;;;;5020292;28;20049;-75
2022/06/22 08:32:22;;;;;;;5.97;1.60;;;23.50;89.40;;;;;;5026930;28;20559;-75
2022/06/22 08:35:14;;;;;;;2.67;1.38;;;23.70;90.50;;;;;;5032097;28;20057;-74
2022/06/22 08:37:59;;;;;;;3.08;1.40;;;23.90;88.10;;;;;;5014069;28;20057;-74
2022/06/22 08:40:37;;;;;;;3.88;1.30;;;24.10;86.80;;;;;;5027819;28;20025;-74
2022/06/22 08:43:36;;;;;;;4.63;1.20;;;24.30;87.10;;;;;;5032114;28;20628;-74
2022/06/22 08:46:10;;;;;;;3.65;1.20;;;24.40;85.80;;;;;;5017788;28;20025;-74
2022/06/22 08:49:07;;;;;;;2.47;0.98;;;24.50;85.40;;;;;;5031384;28;20038;-74
2022/06/22 08:51:50;;;;;;;7.35;1.00;;;24.60;85.50;;;;;;5019588;28;20397;-74
2022/06/22 08:54:55;;;;;;;2.15;1.13;;;24.70;82.30;;;;;;5030733;28;20025;-74
2022/06/22 08:57:45;;;;;;;3.10;0.80;;;24.70;81.00;;;;;;4992290;28;20045;-74
2022/06/22 09:00:19;;;;;;;2.22;1.00;;;24.80;81.70;;;;;;5032141;28;20029;-74
2022/06/22 09:03:29;;;;;;;3.00;0.90;;;24.90;77.60;;;;;;5018411;28;20030;-74
2022/06/22 09:06:12;;;;;;;3.38;1.10;;;25.10;78.00;;;;;;4958382;28;20106;-74
2022/06/22 09:08:43;;;;;;;;;;;25.20;78.50;;;;;;5028212;28;20064;-74
2022/06/22 09:11:20;;;;;;;2.35;1.08;;;25.20;79.70;;;;;;5021250;28;19940;-74
2022/06/22 09:14:07;;;;;;;3.30;0.90;;;25.30;76.80;;;;;;5029111;28;20025;-74
2022/06/22 09:16:38;;;;;;;2.83;1.00;;;25.20;75.60;;;;;;5030537;28;20040;-74
2022/06/22 09:19:25;;;;;;;2.30;1.05;;;25.30;75.30;;;;;;5023699;28;20112;-74
2022/06/22 09:22:15;;;;;;;3.72;1.08;;;25.40;72.00;;;;;;5011760;28;20470;-74
2022/06/22 09:24:46;;;;;;;5.40;0.90;;;25.50;69.60;;;;;;5018741;28;20030;-74
2022/06/22 09:27:17;;;;;;;1.90;1.08;;;25.30;73.50;;;;;;5024376;28;20047;-74
2022/06/22 09:30:12;;;;;;;2.30;1.05;;;25.40;71.70;;;;;;5025574;28;20069;-75
2022/06/22 09:32:52;;;;;;;2.65;0.90;;;25.40;71.10;;;;;;5036279;28;20533;-74
2022/06/22 09:35:38;;;;;;;3.30;1.10;;;25.30;70.50;;;;;;5026935;28;20130;-74
2022/06/22 09:38:18;;;;;;;6.80;1.02;;;25.40;71.20;;;;;;5022644;28;20041;-74
2022/06/22 09:41:04;;;;;;;5.30;1.40;;;25.50;73.70;;;;;;5022792;28;20022;-74
2022/06/22 09:44:00;;;;;;;4.00;1.02;;;25.60;70.80;;;;;;5027082;28;20575;-74
2022/06/22 09:46:29;;;;;;;3.42;1.27;;;25.30;68.10;;;;;;5019456;28;20104;-74
2022/06/22 09:49:26;;;;;;;4.15;1.33;;;25.30;73.10;;;;;;5023216;28;20068;-74
2022/06/22 09:52:06;;;;;;;3.47;1.30;;;25.20;71.00;;;;;;5025896;28;20038;-74
2022/06/22 09:57:36;;;;;;;2.67;1.30;;;25.30;70.40;;;;;;5021123;28;20056;-75
2022/06/22 10:00:13;;;;;;;1.37;0.90;;;25.50;71.80;;;;;;5019903;28;20079;-74
2022/06/22 10:02:57;;;;;;;2.42;1.15;;;25.80;70.10;;;;;;5019270;28;20041;-74
2022/06/22 10:05:51;;;;;;;2.33;1.20;;;25.80;67.40;;;;;;5026102;28;20210;-74
2022/06/22 10:08:28;;;;;;;2.95;1.05;;;25.90;69.50;;;;;;5019328;28;20446;-73
2022/06/22 10:11:22;;;;;;;4.28;1.05;;;25.90;65.90;;;;;;5021101;28;20656;-74
2022/06/22 10:14:03;;;;;;;1.75;1.08;;;25.90;66.70;;;;;;5009532;28;20248;-75
2022/06/22 10:17:06;;;;;;;3.42;1.13;;;25.90;68.00;;;;;;5024792;28;20112;-74
2022/06/22 10:19:34;;;;;;;2.80;1.10;;;25.80;64.60;;;;;;5010060;28;20439;-74
2022/06/22 10:22:14;;;;;;;2.60;1.10;;;25.80;64.30;;;;;;5017797;28;20025;-74
2022/06/22 10:25:01;;;;;;;4.72;1.08;;;25.80;68.60;;;;;;5024933;28;20540;-74
2022/06/22 10:27:29;;;;;;;2.08;1.00;;;25.70;67.90;;;;;;5011271;28;20034;-74
2022/06/22 10:30:09;;;;;;;6.20;1.20;;;25.70;66.90;;;;;;5020494;28;20148;-74
2022/06/22 10:32:47;;;;;;;2.55;1.20;;;25.80;67.40;;;;;;5016599;28;20670;-74
2022/06/22 10:35:15;;;;;;;2.92;1.02;;;25.90;67.40;;;;;;5022265;28;20049;-74
2022/06/22 10:37:59;;;;;;;1.98;1.10;;;25.80;68.00;;;;;;5017086;28;20080;-74
2022/06/22 10:47:07;;;;;;;4.30;0.90;;;25.80;64.90;;;;;;5018760;28;20400;-74
2022/06/22 10:50:00;;;;;;;3.65;1.40;;;25.80;64.50;;;;;;5020722;28;20030;-75
2022/06/22 10:52:44;;;;;;;2.22;1.10;;;25.80;64.20;;;;;;5022200;28;20022;-74
2022/06/22 10:55:42;;;;;;;2.40;1.08;;;25.90;63.70;;;;;;5025957;28;20441;-74
2022/06/22 10:58:19;;;;;;;4.82;1.20;;;25.80;63.10;;;;;;5018050;28;20494;-74
2022/06/22 11:01:08;;;;;;;3.72;1.13;;;25.90;66.90;;;;;;5020595;28;20161;-74
2022/06/22 11:03:57;;;;;;;4.25;1.13;;;25.90;64.10;;;;;;5013501;28;20025;-74
2022/06/22 11:06:50;;;;;;;4.40;1.38;;;26.00;66.80;;;;;;5014225;28;20497;-75
2022/06/22 11:09:29;;;;;;;5.72;0.93;;;25.90;65.90;;;;;;5021064;28;20394;-74
2022/06/22 11:12:00;;;;;;;6.57;1.00;;;25.90;62.40;;;;;;5022764;28;20045;-74
2022/06/22 11:14:49;;;;;;;2.40;1.10;;;26.00;66.60;;;;;;5019947;28;20025;-75
2022/06/22 11:17:20;;;;;;;3.55;1.20;;;26.00;64.00;;;;;;4992154;28;20145;-74
2022/06/22 11:20:22;;;;;;;2.25;1.00;;;26.00;64.00;;;;;;5022895;28;20028;-74
2022/06/22 11:22:53;;;;;;;4.40;1.15;;;26.30;64.70;;;;;;5020966;28;20028;-74
2022/06/22 11:31:39;;;;;;;1.63;1.00;;;26.30;59.80;;;;;;4999769;28;20038;-74
2022/06/22 11:34:35;;;;;;;2.88;1.23;;;26.30;61.20;;;;;;5020289;28;20112;-74
2022/06/22 11:37:23;;;;;;;3.33;1.08;;;26.40;62.60;;;;;;5017029;28;20064;-74
2022/06/22 11:40:14;;;;;;;2.05;1.15;;;26.50;59.10;;;;;;5017606;28;20033;-74
2022/06/22 11:43:01;;;;;;;2.55;1.20;;;26.50;60.50;;;;;;5020674;28;20029;-74
2022/06/22 11:45:50;;;;;;;3.70;1.00;;;26.70;59.70;;;;;;5019485;28;20064;-74
2022/06/22 11:48:38;;;;;;;3.30;1.00;;;26.80;57.00;;;;;;5025477;28;20466;-74
2022/06/22 11:51:14;;;;;;;4.82;1.10;;;26.90;59.30;;;;;;5018809;28;20026;-74
2022/06/22 11:53:58;;;;;;;4.28;1.20;;;26.70;60.10;;;;;;5021742;28;20033;-74
2022/06/22 11:56:26;;;;;;;1.52;1.00;;;26.60;61.80;;;;;;5023174;28;20049;-74
2022/06/22 11:59:17;;;;;;;3.08;0.93;;;26.70;56.20;;;;;;5015566;28;20033;-74
2022/06/22 12:01:45;;;;;;;4.90;1.10;;;26.90;58.30;;;;;;5020867;28;20026;-74
2022/06/22 12:04:39;;;;;;;1.17;0.98;;;26.80;57.30;;;;;;5024697;28;20567;-74
2022/06/22 12:07:25;;;;;;;2.63;1.10;;;26.70;55.00;;;;;;4984391;28;20674;-74
2022/06/22 12:10:12;;;;;;;1.48;1.00;;;26.80;56.70;;;;;;5019632;28;20026;-74
2022/06/22 12:13:01;;;;;;;1.20;0.88;;;26.70;58.20;;;;;;5025746;28;20139;-75
2022/06/22 12:15:42;;;;;;;4.53;1.10;;;26.60;55.30;;;;;;5022776;28;20033;-74
2022/06/22 12:18:35;;;;;;;1.75;0.95;;;26.70;55.80;;;;;;5012560;28;20072;-74
2022/06/22 12:21:19;;;;;;;;;;;26.80;55.40;;;;;;5022506;28;20548;-74
2022/06/22 12:23:48;;;;;;;1.38;0.80;;;26.90;55.80;;;;;;5020064;28;20361;-75
2022/06/22 12:27:08;;;;;;;2.45;0.85;;;27.20;56.30;;;;;;5018923;28;20034;-74
2022/06/22 12:30:10;;;;;;;2.17;0.80;;;27.40;53.40;;;;;;4942140;29;20115;-74
2022/06/22 12:32:50;;;;;;;1.63;1.02;;;27.60;53.60;;;;;;5017535;28;20478;-74
2022/06/22 12:35:36;;;;;;;2.25;1.00;;;27.60;54.20;;;;;;5009788;28;20529;-74
2022/06/22 12:38:15;;;;;;;3.90;1.02;;;27.60;56.70;;;;;;5008514;28;20361;-74
2022/06/22 12:40:58;;;;;;;2.20;0.90;;;27.80;52.80;;;;;;5014126;28;20025;-74
2022/06/22 12:43:26;;;;;;;;;;;27.90;51.90;;;;;;5013821;28;20119;-74
2022/06/22 12:46:01;;;;;;;2.42;0.82;;;27.90;52.20;;;;;;5009993;28;19916;-74
2022/06/22 12:48:40;;;;;;;1.80;1.00;;;27.80;52.60;;;;;;5016102;28;20040;-74
2022/06/22 12:51:26;;;;;;;1.48;0.90;;;28.00;51.20;;;;;;5021929;28;20059;-74
2022/06/22 12:54:33;;;;;;;1.70;0.82;;;28.20;51.00;;;;;;5029764;28;20034;-74
2022/06/22 12:57:09;;;;;;;1.90;0.80;;;28.30;53.00;;;;;;5022799;28;20495;-74
2022/06/22 12:59:58;;;;;;;1.02;0.80;;;28.30;51.20;;;;;;5020151;28;20411;-74
2022/06/22 13:02:29;;;;;;;1.35;0.80;;;28.30;52.10;;;;;;5015614;28;20030;-74
2022/06/22 13:05:02;;;;;;;1.85;0.80;;;28.20;50.90;;;;;;5023055;28;20045;-74
2022/06/22 13:07:28;;;;;;;;;;;28.30;50.50;;;;;;5030230;28;20041;-74
2022/06/22 13:09:54;;;;;;;1.58;0.90;;;28.50;49.60;;;;;;5024997;28;20570;-74
2022/06/22 13:12:32;;;;;;;2.28;0.90;;;28.70;50.10;;;;;;5027124;28;20035;-74
2022/06/22 13:15:16;;;;;;;2.35;0.90;;;28.90;51.70;;;;;;5026924;28;20533;-74
2022/06/22 13:17:57;;;;;;;2.40;0.70;;;28.80;51.50;;;;;;5024842;28;20078;-74
2022/06/22 13:20:45;;;;;;;5.75;1.00;;;28.70;48.80;;;;;;5024295;28;20017;-75
2022/06/22 13:23:47;;;;;;;2.25;0.80;;;28.80;48.40;;;;;;5025786;28;20056;-74
2022/06/22 13:26:17;;;;;;;2.70;1.08;;;28.90;48.30;;;;;;5010291;28;20030;-74
2022/06/22 13:28:51;;;;;;;3.45;0.82;;;28.90;52.20;;;;;;5021395;28;20521;-75
2022/06/22 13:31:25;;;;;;;2.35;1.02;;;28.90;50.20;;;;;;5026637;28;20037;-74
2022/06/22 13:34:00;;;;;;;3.53;0.95;;;29.00;52.20;;;;;;5021788;28;20041;-74
2022/06/22 13:36:41;;;;;;;4.28;1.00;;;28.90;51.90;;;;;;5027747;28;20450;-74
2022/06/22 13:39:25;;;;;;;2.83;1.05;;;28.80;52.70;;;;;;5026063;28;20038;-74
2022/06/22 13:42:25;;;;;;;4.18;1.10;;;28.90;52.40;;;;;;5027254;28;20033;-74
2022/06/22 13:44:57;;;;;;;3.05;1.20;;;29.10;50.10;;;;;;5009319;28;20437;-73
2022/06/22 13:47:44;;;;;;;6.03;1.10;;;29.40;48.00;;;;;;5016081;28;20435;-74
2022/06/22 13:50:26;;;;;;;1.60;0.82;;;29.70;46.00;;;;;;5018848;28;20030;-74
2022/06/22 13:52:54;;;;;;;3.40;0.95;;;29.70;48.60;;;;;;5018705;28;20033;-74
2022/06/22 13:55:32;;;;;;;1.45;0.90;;;29.60;46.90;;;;;;5027050;28;20489;-74
2022/06/22 13:58:07;;;;;;;2.80;0.98;;;29.60;49.70;;;;;;5025101;28;20386;-73
2022/06/22 14:00:49;;;;;;;3.97;0.93;;;29.60;58.00;;;;;;5021554;28;20191;-74
2022/06/22 14:03:14;;;;;;;3.53;1.10;;;29.50;49.40;;;;;;5017958;28;20029;-74
2022/06/22 14:05:44;;;;;;;6.97;1.42;;;29.50;51.40;;;;;;5023316;28;20028;-73
2022/06/22 14:08:34;;;;;;;1.10;0.90;;;29.30;49.80;;;;;;5018800;28;20060;-74
2022/06/22 14:11:10;;;;;;;4.28;1.00;;;29.10;49.20;;;;;;5022917;28;20489;-74